sensor_id;sensor_type;location;lat;lon;timestamp;pressure;altitude;pressure_sealevel;temperature;humidity
44697;BME280;57264;47.480;19.354;2023-07-13T00:00:27;98947.06;;;22.00;72.77
44697;BME280;57264;47.480;19.354;2023-07-13T00:02:53;98945.28;;;22.32;71.28
44697;BME280;57264;47.480;19.354;2023-07-13T00:05:19;98952.53;;;22.32;71.04
44697;BME280;57264;47.480;19.354;2023-07-13T00:07:44;98960.25;;;22.33;71.37
44697;BME280;57264;47.480;19.354;2023-07-13T00:10:11;98955.63;;;22.39;70.98
44697;BME280;57264;47.480;19.354;2023-07-13T00:12:36;98952.78;;;22.68;70.06
44697;BME280;57264;47.480;19.354;2023-07-13T00:15:06;98953.09;;;22.85;69.69
44697;BME280;57264;47.480;19.354;2023-07-13T00:17:32;98949.28;;;23.05;68.79
44697;BME280;57264;47.480;19.354;2023-07-13T00:20:01;98937.91;;;23.13;69.11
44697;BME280;57264;47.480;19.354;2023-07-13T00:22:26;98936.09;;;23.08;69.69
44697;BME280;57264;47.480;19.354;2023-07-13T00:24:52;98931.34;;;23.05;70.44
44697;BME280;57264;47.480;19.354;2023-07-13T00:27:18;98926.59;;;23.02;71.47
44697;BME280;57264;47.480;19.354;2023-07-13T00:29:43;98928.63;;;22.92;72.27
44697;BME280;57264;47.480;19.354;2023-07-13T00:32:10;98909.47;;;22.84;71.83
44697;BME280;57264;47.480;19.354;2023-07-13T00:34:36;98898.84;;;22.79;71.35
44697;BME280;57264;47.480;19.354;2023-07-13T00:37:02;98887.44;;;22.74;71.35
44697;BME280;57264;47.480;19.354;2023-07-13T00:39:27;98896.13;;;22.66;71.67
44697;BME280;57264;47.480;19.354;2023-07-13T00:41:53;98879.06;;;22.43;74.19
44697;BME280;57264;47.480;19.354;2023-07-13T00:44:19;98870.50;;;22.09;77.29
44697;BME280;57264;47.480;19.354;2023-07-13T00:46:44;98863.38;;;21.80;80.00
44697;BME280;57264;47.480;19.354;2023-07-13T00:49:12;98857.44;;;21.65;81.19
44697;BME280;57264;47.480;19.354;2023-07-13T00:52:11;98849.00;;;21.58;81.94
44697;BME280;57264;47.480;19.354;2023-07-13T00:54:32;98837.56;;;21.52;82.34
44697;BME280;57264;47.480;19.354;2023-07-13T00:57:00;98824.22;;;21.52;82.16
44697;BME280;57264;47.480;19.354;2023-07-13T00:59:26;98811.03;;;21.61;80.87
44697;BME280;57264;47.480;19.354;2023-07-13T01:04:36;98790.28;;;21.71;78.80
44697;BME280;57264;47.480;19.354;2023-07-13T01:07:03;98786.06;;;21.70;78.63
44697;BME280;57264;47.480;19.354;2023-07-13T01:09:29;98782.75;;;21.78;77.41
44697;BME280;57264;47.480;19.354;2023-07-13T01:11:55;98773.75;;;21.88;76.24
44697;BME280;57264;47.480;19.354;2023-07-13T01:14:20;98768.19;;;22.03;74.06
44697;BME280;57264;47.480;19.354;2023-07-13T01:16:46;98771.00;;;22.12;73.21
44697;BME280;57264;47.480;19.354;2023-07-13T01:22:12;98771.59;;;22.41;69.97
44697;BME280;57264;47.480;19.354;2023-07-13T01:24:38;98780.00;;;22.34;70.18
44697;BME280;57264;47.480;19.354;2023-07-13T01:27:04;98785.13;;;22.31;70.78
44697;BME280;57264;47.480;19.354;2023-07-13T01:29:32;98786.34;;;22.06;72.76
44697;BME280;57264;47.480;19.354;2023-07-13T01:31:57;98781.94;;;21.97;73.83
44697;BME280;57264;47.480;19.354;2023-07-13T01:34:23;98772.69;;;21.89;73.51
44697;BME280;57264;47.480;19.354;2023-07-13T01:36:48;98771.41;;;21.86;73.57
44697;BME280;57264;47.480;19.354;2023-07-13T01:39:13;98771.59;;;21.90;72.79
44697;BME280;57264;47.480;19.354;2023-07-13T01:41:40;98765.91;;;21.97;71.63
44697;BME280;57264;47.480;19.354;2023-07-13T01:44:06;98759.97;;;22.00;71.48
44697;BME280;57264;47.480;19.354;2023-07-13T01:46:31;98756.16;;;22.06;71.03
44697;BME280;57264;47.480;19.354;2023-07-13T01:48:56;98753.06;;;21.99;70.78
44697;BME280;57264;47.480;19.354;2023-07-13T01:51:22;98741.41;;;22.08;70.63
44697;BME280;57264;47.480;19.354;2023-07-13T01:53:47;98746.34;;;22.01;71.55
44697;BME280;57264;47.480;19.354;2023-07-13T01:56:13;98746.47;;;22.10;71.11
44697;BME280;57264;47.480;19.354;2023-07-13T01:58:38;98732.78;;;22.11;71.07
44697;BME280;57264;47.480;19.354;2023-07-13T02:01:03;98737.66;;;22.09;70.57
44697;BME280;57264;47.480;19.354;2023-07-13T02:03:29;98737.09;;;22.26;69.38
44697;BME280;57264;47.480;19.354;2023-07-13T02:05:54;98728.53;;;22.43;68.95
44697;BME280;57264;47.480;19.354;2023-07-13T02:08:20;98725.25;;;22.46;69.23
44697;BME280;57264;47.480;19.354;2023-07-13T02:10:45;98716.66;;;22.62;68.81
44697;BME280;57264;47.480;19.354;2023-07-13T02:13:10;98719.28;;;22.35;70.67
44697;BME280;57264;47.480;19.354;2023-07-13T02:15:38;98720.06;;;22.22;71.43
44697;BME280;57264;47.480;19.354;2023-07-13T02:18:03;98724.78;;;22.11;71.92
44697;BME280;57264;47.480;19.354;2023-07-13T02:20:29;98721.44;;;22.19;70.88
44697;BME280;57264;47.480;19.354;2023-07-13T02:22:54;98719.78;;;22.37;69.53
44697;BME280;57264;47.480;19.354;2023-07-13T02:25:19;98722.88;;;22.44;68.85
44697;BME280;57264;47.480;19.354;2023-07-13T02:27:45;98722.59;;;22.46;68.64
44697;BME280;57264;47.480;19.354;2023-07-13T02:30:10;98724.94;;;22.33;69.06
44697;BME280;57264;47.480;19.354;2023-07-13T02:32:36;98728.50;;;22.29;69.07
44697;BME280;57264;47.480;19.354;2023-07-13T02:35:01;98729.81;;;22.45;68.44
44697;BME280;57264;47.480;19.354;2023-07-13T02:37:27;98727.81;;;22.37;68.61
44697;BME280;57264;47.480;19.354;2023-07-13T02:39:52;98719.75;;;22.23;69.50
44697;BME280;57264;47.480;19.354;2023-07-13T02:42:18;98721.03;;;22.12;70.42
44697;BME280;57264;47.480;19.354;2023-07-13T02:44:43;98728.75;;;22.14;70.78
44697;BME280;57264;47.480;19.354;2023-07-13T02:47:08;98734.78;;;22.19;70.28
44697;BME280;57264;47.480;19.354;2023-07-13T02:49:34;98729.59;;;22.42;68.84
44697;BME280;57264;47.480;19.354;2023-07-13T02:51:59;98726.63;;;22.43;68.63
44697;BME280;57264;47.480;19.354;2023-07-13T02:54:25;98723.06;;;22.34;69.12
44697;BME280;57264;47.480;19.354;2023-07-13T02:56:50;98732.38;;;22.36;68.96
44697;BME280;57264;47.480;19.354;2023-07-13T02:59:16;98737.00;;;22.31;69.47
44697;BME280;57264;47.480;19.354;2023-07-13T03:01:41;98734.34;;;21.80;73.30
44697;BME280;57264;47.480;19.354;2023-07-13T03:04:07;98732.19;;;22.47;68.31
44697;BME280;57264;47.480;19.354;2023-07-13T03:06:33;98733.06;;;22.74;66.86
44697;BME280;57264;47.480;19.354;2023-07-13T03:08:58;98728.25;;;23.12;65.13
44697;BME280;57264;47.480;19.354;2023-07-13T03:11:25;98737.19;;;23.08;65.37
44697;BME280;57264;47.480;19.354;2023-07-13T03:13:51;98742.34;;;23.18;64.75
44697;BME280;57264;47.480;19.354;2023-07-13T03:16:16;98750.78;;;22.98;66.77
44697;BME280;57264;47.480;19.354;2023-07-13T03:18:42;98774.09;;;21.25;77.85
44697;BME280;57264;47.480;19.354;2023-07-13T03:21:07;98781.56;;;20.99;80.08
44697;BME280;57264;47.480;19.354;2023-07-13T03:23:33;98786.50;;;20.87;81.84
44697;BME280;57264;47.480;19.354;2023-07-13T03:26:05;98788.91;;;20.89;82.12
44697;BME280;57264;47.480;19.354;2023-07-13T03:28:31;98795.53;;;20.91;82.52
44697;BME280;57264;47.480;19.354;2023-07-13T03:31:05;98783.44;;;20.75;83.66
44697;BME280;57264;47.480;19.354;2023-07-13T03:33:30;98778.00;;;20.85;82.63
44697;BME280;57264;47.480;19.354;2023-07-13T03:35:56;98770.22;;;20.89;82.84
44697;BME280;57264;47.480;19.354;2023-07-13T03:38:21;98773.50;;;21.05;82.10
44697;BME280;57264;47.480;19.354;2023-07-13T03:40:47;98770.25;;;21.13;81.58
44697;BME280;57264;47.480;19.354;2023-07-13T03:43:12;98764.94;;;21.31;80.34
44697;BME280;57264;47.480;19.354;2023-07-13T03:45:38;98764.72;;;21.84;78.58
44697;BME280;57264;47.480;19.354;2023-07-13T03:48:03;98760.19;;;21.84;78.63
44697;BME280;57264;47.480;19.354;2023-07-13T03:50:30;98756.00;;;22.62;74.99
44697;BME280;57264;47.480;19.354;2023-07-13T03:52:56;98764.44;;;23.87;69.52
44697;BME280;57264;47.480;19.354;2023-07-13T03:55:22;98765.00;;;23.97;68.35
44697;BME280;57264;47.480;19.354;2023-07-13T03:57:47;98773.28;;;22.97;71.88
44697;BME280;57264;47.480;19.354;2023-07-13T04:00:13;98788.97;;;22.90;73.30
44697;BME280;57264;47.480;19.354;2023-07-13T04:02:39;98781.50;;;23.91;70.12
44697;BME280;57264;47.480;19.354;2023-07-13T04:05:04;98770.03;;;25.05;65.67
44697;BME280;57264;47.480;19.354;2023-07-13T04:07:29;98772.03;;;24.60;66.74
44697;BME280;57264;47.480;19.354;2023-07-13T04:09:55;98777.50;;;24.24;67.89
44697;BME280;57264;47.480;19.354;2023-07-13T04:12:20;98782.31;;;24.36;67.55
44697;BME280;57264;47.480;19.354;2023-07-13T04:14:46;98788.75;;;24.57;66.77
44697;BME280;57264;47.480;19.354;2023-07-13T04:17:11;98801.66;;;25.16;64.94
44697;BME280;57264;47.480;19.354;2023-07-13T04:19:36;98805.28;;;24.06;69.15
44697;BME280;57264;47.480;19.354;2023-07-13T04:22:02;98819.22;;;23.45;72.73
44697;BME280;57264;47.480;19.354;2023-07-13T04:24:27;98840.34;;;23.19;73.55
44697;BME280;57264;47.480;19.354;2023-07-13T04:26:53;98861.16;;;22.44;76.69
44697;BME280;57264;47.480;19.354;2023-07-13T04:29:18;98880.03;;;21.96;79.07
44697;BME280;57264;47.480;19.354;2023-07-13T04:31:43;98866.31;;;21.79;79.24
44697;BME280;57264;47.480;19.354;2023-07-13T04:34:09;98858.78;;;21.86;79.18
44697;BME280;57264;47.480;19.354;2023-07-13T04:36:34;98847.06;;;21.39;81.42
44697;BME280;57264;47.480;19.354;2023-07-13T04:39:03;98853.72;;;21.18;82.23
44697;BME280;57264;47.480;19.354;2023-07-13T04:41:28;98866.69;;;21.30;82.16
44697;BME280;57264;47.480;19.354;2023-07-13T04:43:53;98872.97;;;21.39;81.45
44697;BME280;57264;47.480;19.354;2023-07-13T04:46:19;98870.59;;;21.14;83.12
44697;BME280;57264;47.480;19.354;2023-07-13T04:48:44;98878.94;;;21.31;81.91
44697;BME280;57264;47.480;19.354;2023-07-13T04:51:10;98884.84;;;21.28;82.61
44697;BME280;57264;47.480;19.354;2023-07-13T04:53:35;98888.53;;;21.32;81.97
44697;BME280;57264;47.480;19.354;2023-07-13T04:56:01;98891.13;;;21.42;81.23
44697;BME280;57264;47.480;19.354;2023-07-13T04:58:27;98900.88;;;21.28;82.31
44697;BME280;57264;47.480;19.354;2023-07-13T05:00:52;98899.59;;;21.20;82.99
44697;BME280;57264;47.480;19.354;2023-07-13T05:03:18;98905.78;;;21.16;82.41
44697;BME280;57264;47.480;19.354;2023-07-13T05:05:43;98906.38;;;21.13;83.15
44697;BME280;57264;47.480;19.354;2023-07-13T05:08:19;98907.69;;;21.10;83.78
44697;BME280;57264;47.480;19.354;2023-07-13T05:10:44;98906.94;;;21.05;84.36
44697;BME280;57264;47.480;19.354;2023-07-13T05:13:10;98912.84;;;21.01;84.52
44697;BME280;57264;47.480;19.354;2023-07-13T05:15:35;98926.72;;;20.98;86.91
44697;BME280;57264;47.480;19.354;2023-07-13T05:18:01;98933.81;;;20.84;89.35
44697;BME280;57264;47.480;19.354;2023-07-13T05:20:26;98951.53;;;20.70;89.01
44697;BME280;57264;47.480;19.354;2023-07-13T05:22:51;98955.31;;;20.59;90.38
44697;BME280;57264;47.480;19.354;2023-07-13T05:25:17;98950.06;;;20.49;92.90
44697;BME280;57264;47.480;19.354;2023-07-13T05:27:42;98960.53;;;20.40;93.93
44697;BME280;57264;47.480;19.354;2023-07-13T05:30:10;98980.31;;;20.24;95.45
44697;BME280;57264;47.480;19.354;2023-07-13T05:32:37;98998.19;;;20.19;98.52
44697;BME280;57264;47.480;19.354;2023-07-13T05:35:02;99007.63;;;19.91;100.00
44697;BME280;57264;47.480;19.354;2023-07-13T05:37:27;99008.47;;;19.81;100.00
44697;BME280;57264;47.480;19.354;2023-07-13T05:39:53;98985.28;;;19.82;100.00
44697;BME280;57264;47.480;19.354;2023-07-13T05:42:18;98998.31;;;19.78;100.00
44697;BME280;57264;47.480;19.354;2023-07-13T05:44:44;99001.78;;;19.79;100.00
44697;BME280;57264;47.480;19.354;2023-07-13T05:47:09;99020.72;;;19.72;100.00
44697;BME280;57264;47.480;19.354;2023-07-13T05:49:34;99032.19;;;19.68;100.00
44697;BME280;57264;47.480;19.354;2023-07-13T05:52:00;99030.34;;;19.48;100.00
44697;BME280;57264;47.480;19.354;2023-07-13T05:54:26;99046.84;;;19.25;100.00
44697;BME280;57264;47.480;19.354;2023-07-13T05:56:51;99041.00;;;19.12;100.00
44697;BME280;57264;47.480;19.354;2023-07-13T05:59:17;99042.81;;;19.02;100.00
44697;BME280;57264;47.480;19.354;2023-07-13T06:01:42;99040.19;;;18.97;100.00
44697;BME280;57264;47.480;19.354;2023-07-13T06:04:08;99034.03;;;18.86;100.00
44697;BME280;57264;47.480;19.354;2023-07-13T06:06:33;99034.81;;;18.82;100.00
44697;BME280;57264;47.480;19.354;2023-07-13T06:08:58;99043.06;;;18.75;100.00
44697;BME280;57264;47.480;19.354;2023-07-13T06:11:25;99022.28;;;18.62;100.00
44697;BME280;57264;47.480;19.354;2023-07-13T06:13:51;99020.44;;;18.57;100.00
44697;BME280;57264;47.480;19.354;2023-07-13T06:16:16;99001.22;;;18.50;100.00
44697;BME280;57264;47.480;19.354;2023-07-13T06:18:42;98976.50;;;18.40;100.00
44697;BME280;57264;47.480;19.354;2023-07-13T06:21:12;98917.47;;;18.28;100.00
44697;BME280;57264;47.480;19.354;2023-07-13T06:23:38;98831.91;;;18.25;100.00
44697;BME280;57264;47.480;19.354;2023-07-13T06:26:04;98819.16;;;18.22;100.00
44697;BME280;57264;47.480;19.354;2023-07-13T06:28:30;98726.47;;;18.16;100.00
44697;BME280;57264;47.480;19.354;2023-07-13T06:30:56;98662.19;;;18.09;100.00
44697;BME280;57264;47.480;19.354;2023-07-13T06:33:22;98639.84;;;18.10;100.00
44697;BME280;57264;47.480;19.354;2023-07-13T06:35:47;98695.63;;;18.10;100.00
44697;BME280;57264;47.480;19.354;2023-07-13T06:38:13;98720.84;;;18.17;100.00
44697;BME280;57264;47.480;19.354;2023-07-13T06:40:38;98767.88;;;18.27;100.00
44697;BME280;57264;47.480;19.354;2023-07-13T06:43:04;98714.75;;;18.37;100.00
44697;BME280;57264;47.480;19.354;2023-07-13T06:45:29;98725.09;;;18.39;100.00
44697;BME280;57264;47.480;19.354;2023-07-13T06:47:54;98721.09;;;18.46;100.00
44697;BME280;57264;47.480;19.354;2023-07-13T06:50:20;98709.69;;;18.56;99.50
44697;BME280;57264;47.480;19.354;2023-07-13T06:52:45;98722.13;;;18.70;98.69
44697;BME280;57264;47.480;19.354;2023-07-13T06:55:11;98716.00;;;18.75;98.11
44697;BME280;57264;47.480;19.354;2023-07-13T06:57:36;98722.13;;;18.81;97.96
44697;BME280;57264;47.480;19.354;2023-07-13T07:00:01;98733.00;;;18.89;96.76
44697;BME280;57264;47.480;19.354;2023-07-13T07:02:27;98719.34;;;19.06;96.96
44697;BME280;57264;47.480;19.354;2023-07-13T07:04:52;98730.28;;;18.99;96.44
44697;BME280;57264;47.480;19.354;2023-07-13T07:07:19;98722.78;;;19.11;96.36
44697;BME280;57264;47.480;19.354;2023-07-13T07:09:44;98703.53;;;19.30;96.46
44697;BME280;57264;47.480;19.354;2023-07-13T07:12:10;98708.81;;;19.35;95.54
44697;BME280;57264;47.480;19.354;2023-07-13T07:14:35;98699.34;;;19.62;94.26
44697;BME280;57264;47.480;19.354;2023-07-13T07:17:00;98685.19;;;20.35;93.97
44697;BME280;57264;47.480;19.354;2023-07-13T07:19:27;98671.44;;;19.94;91.54
44697;BME280;57264;47.480;19.354;2023-07-13T07:21:53;98686.16;;;20.44;90.74
44697;BME280;57264;47.480;19.354;2023-07-13T07:24:19;98694.59;;;20.75;89.06
44697;BME280;57264;47.480;19.354;2023-07-13T07:26:44;98703.75;;;20.45;89.76
44697;BME280;57264;47.480;19.354;2023-07-13T07:29:09;98713.16;;;21.09;86.84
44697;BME280;57264;47.480;19.354;2023-07-13T07:31:35;98730.88;;;21.79;84.16
44697;BME280;57264;47.480;19.354;2023-07-13T07:34:02;98751.97;;;22.00;84.05
44697;BME280;57264;47.480;19.354;2023-07-13T07:36:27;98787.56;;;22.78;80.80
44697;BME280;57264;47.480;19.354;2023-07-13T07:38:53;98848.31;;;22.92;78.48
44697;BME280;57264;47.480;19.354;2023-07-13T07:41:18;98869.28;;;23.17;79.84
44697;BME280;57264;47.480;19.354;2023-07-13T07:43:43;98876.84;;;23.69;77.48
44697;BME280;57264;47.480;19.354;2023-07-13T07:46:09;98893.56;;;23.20;78.49
44697;BME280;57264;47.480;19.354;2023-07-13T07:48:34;98918.03;;;23.00;80.56
44697;BME280;57264;47.480;19.354;2023-07-13T07:51:00;98922.03;;;22.14;82.39
44697;BME280;57264;47.480;19.354;2023-07-13T07:53:25;98924.56;;;21.82;83.31
44697;BME280;57264;47.480;19.354;2023-07-13T07:55:51;98918.91;;;23.42;78.41
44697;BME280;57264;47.480;19.354;2023-07-13T07:58:16;98918.69;;;23.38;76.95
44697;BME280;57264;47.480;19.354;2023-07-13T08:00:41;98907.78;;;23.35;77.77
44697;BME280;57264;47.480;19.354;2023-07-13T08:03:07;98913.44;;;23.88;76.19
44697;BME280;57264;47.480;19.354;2023-07-13T08:05:34;98908.81;;;23.52;76.24
44697;BME280;57264;47.480;19.354;2023-07-13T08:08:00;98902.84;;;23.55;76.37
44697;BME280;57264;47.480;19.354;2023-07-13T08:10:25;98916.03;;;23.93;74.67
44697;BME280;57264;47.480;19.354;2023-07-13T08:12:51;98925.56;;;23.99;74.36
44697;BME280;57264;47.480;19.354;2023-07-13T08:15:16;98921.31;;;23.70;74.83
44697;BME280;57264;47.480;19.354;2023-07-13T08:17:42;98915.81;;;24.03;73.10
44697;BME280;57264;47.480;19.354;2023-07-13T08:20:08;98907.50;;;24.62;71.84
44697;BME280;57264;47.480;19.354;2023-07-13T08:22:36;98913.00;;;24.57;72.51
44697;BME280;57264;47.480;19.354;2023-07-13T08:25:02;98902.66;;;24.87;68.87
44697;BME280;57264;47.480;19.354;2023-07-13T08:27:27;98913.38;;;23.79;70.00
44697;BME280;57264;47.480;19.354;2023-07-13T08:29:53;98909.19;;;23.73;70.68
44697;BME280;57264;47.480;19.354;2023-07-13T08:32:19;98898.97;;;24.38;69.31
44697;BME280;57264;47.480;19.354;2023-07-13T08:34:45;98912.31;;;24.74;69.30
44697;BME280;57264;47.480;19.354;2023-07-13T08:37:10;98908.25;;;24.99;67.53
44697;BME280;57264;47.480;19.354;2023-07-13T08:39:36;98906.69;;;24.84;68.11
44697;BME280;57264;47.480;19.354;2023-07-13T08:42:26;98902.53;;;25.23;68.58
44697;BME280;57264;47.480;19.354;2023-07-13T08:47:18;98902.31;;;25.50;64.72
44697;BME280;57264;47.480;19.354;2023-07-13T08:49:46;98903.69;;;24.99;65.83
44697;BME280;57264;47.480;19.354;2023-07-13T08:54:38;98894.69;;;26.08;62.34
44697;BME280;57264;47.480;19.354;2023-07-13T08:57:12;98899.75;;;25.93;63.49
44697;BME280;57264;47.480;19.354;2023-07-13T08:59:38;98905.78;;;25.50;63.60
44697;BME280;57264;47.480;19.354;2023-07-13T09:02:20;98905.75;;;25.81;64.02
44697;BME280;57264;47.480;19.354;2023-07-13T09:04:49;98903.31;;;26.19;63.56
44697;BME280;57264;47.480;19.354;2023-07-13T09:14:57;98892.06;;;26.51;59.80
44697;BME280;57264;47.480;19.354;2023-07-13T09:17:25;98896.75;;;26.80;59.52
44697;BME280;57264;47.480;19.354;2023-07-13T09:20:35;98894.25;;;26.75;59.97
44697;BME280;57264;47.480;19.354;2023-07-13T09:22:40;98907.41;;;26.42;59.37
44697;BME280;57264;47.480;19.354;2023-07-13T09:25:13;98905.31;;;26.74;60.03
44697;BME280;57264;47.480;19.354;2023-07-13T09:27:45;98908.19;;;26.86;59.78
44697;BME280;57264;47.480;19.354;2023-07-13T09:32:41;98894.38;;;27.51;56.91
44697;BME280;57264;47.480;19.354;2023-07-13T09:35:11;98899.16;;;27.75;57.68
44697;BME280;57264;47.480;19.354;2023-07-13T09:37:37;98899.28;;;27.40;57.09
44697;BME280;57264;47.480;19.354;2023-07-13T09:40:03;98907.47;;;27.15;56.39
44697;BME280;57264;47.480;19.354;2023-07-13T09:42:30;98906.06;;;27.09;57.72
44697;BME280;57264;47.480;19.354;2023-07-13T09:44:58;98905.75;;;27.10;58.52
44697;BME280;57264;47.480;19.354;2023-07-13T09:47:31;98921.56;;;27.20;57.43
44697;BME280;57264;47.480;19.354;2023-07-13T09:50:02;98920.97;;;26.80;58.67
44697;BME280;57264;47.480;19.354;2023-07-13T09:52:27;98921.00;;;26.89;56.95
44697;BME280;57264;47.480;19.354;2023-07-13T09:55:04;98909.91;;;27.37;57.34
44697;BME280;57264;47.480;19.354;2023-07-13T09:57:30;98909.09;;;27.54;56.22
44697;BME280;57264;47.480;19.354;2023-07-13T09:59:56;98908.69;;;28.22;56.55
44697;BME280;57264;47.480;19.354;2023-07-13T10:04:57;98930.44;;;27.21;58.66
44697;BME280;57264;47.480;19.354;2023-07-13T10:07:23;98917.03;;;27.41;57.94
44697;BME280;57264;47.480;19.354;2023-07-13T10:09:53;98917.53;;;27.52;58.55
44697;BME280;57264;47.480;19.354;2023-07-13T10:12:19;98922.06;;;27.89;56.17
44697;BME280;57264;47.480;19.354;2023-07-13T10:14:44;98920.72;;;28.46;55.89
44697;BME280;57264;47.480;19.354;2023-07-13T10:17:10;98919.41;;;26.96;57.33
44697;BME280;57264;47.480;19.354;2023-07-13T10:19:37;98917.34;;;28.49;55.40
44697;BME280;57264;47.480;19.354;2023-07-13T10:22:11;98924.25;;;27.96;56.66
44697;BME280;57264;47.480;19.354;2023-07-13T10:24:38;98925.25;;;27.54;55.69
44697;BME280;57264;47.480;19.354;2023-07-13T10:30:34;98928.66;;;28.01;53.18
44697;BME280;57264;47.480;19.354;2023-07-13T10:32:39;98925.25;;;27.45;55.11
44697;BME280;57264;47.480;19.354;2023-07-13T10:35:05;98928.16;;;28.49;53.28
44697;BME280;57264;47.480;19.354;2023-07-13T10:37:36;98932.72;;;27.86;54.68
44697;BME280;57264;47.480;19.354;2023-07-13T10:40:05;98932.69;;;27.57;54.32
44697;BME280;57264;47.480;19.354;2023-07-13T10:42:41;98934.28;;;27.58;54.67
44697;BME280;57264;47.480;19.354;2023-07-13T10:45:14;98929.13;;;27.73;54.86
44697;BME280;57264;47.480;19.354;2023-07-13T10:47:41;98939.84;;;27.90;56.00
44697;BME280;57264;47.480;19.354;2023-07-13T10:50:08;98936.88;;;27.37;56.80
44697;BME280;57264;47.480;19.354;2023-07-13T10:52:46;98940.91;;;27.22;55.49
44697;BME280;57264;47.480;19.354;2023-07-13T10:57:59;98923.88;;;27.77;55.14
44697;BME280;57264;47.480;19.354;2023-07-13T11:00:25;98930.69;;;27.83;54.61
44697;BME280;57264;47.480;19.354;2023-07-13T11:02:57;98935.78;;;27.29;55.43
44697;BME280;57264;47.480;19.354;2023-07-13T11:05:26;98932.19;;;27.92;56.51
44697;BME280;57264;47.480;19.354;2023-07-13T11:16:32;98917.84;;;27.42;53.53
44697;BME280;57264;47.480;19.354;2023-07-13T11:21:27;98935.94;;;28.50;52.20
44697;BME280;57264;47.480;19.354;2023-07-13T11:31:52;98933.25;;;28.71;51.75
44697;BME280;57264;47.480;19.354;2023-07-13T11:34:20;98929.84;;;28.20;50.38
44697;BME280;57264;47.480;19.354;2023-07-13T11:36:47;98910.59;;;27.72;53.21
44697;BME280;57264;47.480;19.354;2023-07-13T11:39:17;98916.41;;;28.65;50.43
44697;BME280;57264;47.480;19.354;2023-07-13T11:41:44;98910.28;;;28.23;48.96
44697;BME280;57264;47.480;19.354;2023-07-13T11:44:21;98916.25;;;27.79;50.44
44697;BME280;57264;47.480;19.354;2023-07-13T11:46:51;98910.59;;;27.92;51.10
44697;BME280;57264;47.480;19.354;2023-07-13T11:49:18;98914.34;;;26.95;50.78
44697;BME280;57264;47.480;19.354;2023-07-13T11:51:43;98915.72;;;27.18;51.57
44697;BME280;57264;47.480;19.354;2023-07-13T11:56:55;98906.38;;;28.33;50.84
44697;BME280;57264;47.480;19.354;2023-07-13T11:59:22;98917.31;;;28.90;49.32
44697;BME280;57264;47.480;19.354;2023-07-13T12:01:49;98898.72;;;29.34;48.55
44697;BME280;57264;47.480;19.354;2023-07-13T12:04:32;98904.19;;;29.13;47.88
44697;BME280;57264;47.480;19.354;2023-07-13T12:07:06;98915.00;;;28.47;50.04
44697;BME280;57264;47.480;19.354;2023-07-13T12:09:34;98919.50;;;27.93;49.11
44697;BME280;57264;47.480;19.354;2023-07-13T12:12:01;98908.75;;;28.14;49.63
44697;BME280;57264;47.480;19.354;2023-07-13T12:14:27;98915.13;;;28.51;46.44
44697;BME280;57264;47.480;19.354;2023-07-13T12:16:53;98908.31;;;28.65;45.56
44697;BME280;57264;47.480;19.354;2023-07-13T12:19:20;98903.25;;;28.02;46.57
44697;BME280;57264;47.480;19.354;2023-07-13T12:21:46;98899.38;;;28.53;47.86
44697;BME280;57264;47.480;19.354;2023-07-13T12:24:16;98902.06;;;28.73;46.37
44697;BME280;57264;47.480;19.354;2023-07-13T12:26:42;98896.34;;;27.92;46.48
44697;BME280;57264;47.480;19.354;2023-07-13T12:29:11;98895.06;;;28.40;47.49
44697;BME280;57264;47.480;19.354;2023-07-13T12:31:42;98895.44;;;28.50;46.44
44697;BME280;57264;47.480;19.354;2023-07-13T12:34:11;98904.81;;;27.82;48.62
44697;BME280;57264;47.480;19.354;2023-07-13T12:36:37;98889.97;;;28.38;47.01
44697;BME280;57264;47.480;19.354;2023-07-13T12:41:48;98889.25;;;28.50;46.14
44697;BME280;57264;47.480;19.354;2023-07-13T12:44:15;98890.53;;;28.97;47.45
44697;BME280;57264;47.480;19.354;2023-07-13T12:46:56;98888.28;;;28.13;46.98
44697;BME280;57264;47.480;19.354;2023-07-13T12:49:29;98891.38;;;28.23;46.68
44697;BME280;57264;47.480;19.354;2023-07-13T12:51:59;98873.97;;;28.33;46.27
44697;BME280;57264;47.480;19.354;2023-07-13T12:54:25;98885.13;;;28.31;46.26
44697;BME280;57264;47.480;19.354;2023-07-13T12:56:51;98890.19;;;28.87;46.72
44697;BME280;57264;47.480;19.354;2023-07-13T12:59:19;98896.91;;;28.48;45.64
44697;BME280;57264;47.480;19.354;2023-07-13T13:01:45;98892.53;;;28.55;45.36
44697;BME280;57264;47.480;19.354;2023-07-13T13:04:11;98884.44;;;28.55;45.37
44697;BME280;57264;47.480;19.354;2023-07-13T13:06:38;98889.34;;;28.20;47.39
44697;BME280;57264;47.480;19.354;2023-07-13T13:09:06;98889.03;;;28.55;46.00
44697;BME280;57264;47.480;19.354;2023-07-13T13:11:35;98894.47;;;28.34;46.19
44697;BME280;57264;47.480;19.354;2023-07-13T13:14:00;98911.56;;;28.59;45.87
44697;BME280;57264;47.480;19.354;2023-07-13T13:16:32;98900.84;;;28.71;46.34
44697;BME280;57264;47.480;19.354;2023-07-13T13:18:59;98900.78;;;28.17;46.41
44697;BME280;57264;47.480;19.354;2023-07-13T13:21:27;98889.03;;;28.55;46.11
44697;BME280;57264;47.480;19.354;2023-07-13T13:23:53;98889.28;;;28.82;45.56
44697;BME280;57264;47.480;19.354;2023-07-13T13:26:18;98879.75;;;28.64;44.87
44697;BME280;57264;47.480;19.354;2023-07-13T13:28:44;98875.06;;;28.73;45.23
44697;BME280;57264;47.480;19.354;2023-07-13T13:31:10;98870.34;;;28.50;46.60
44697;BME280;57264;47.480;19.354;2023-07-13T13:33:42;98871.59;;;28.85;46.05
44697;BME280;57264;47.480;19.354;2023-07-13T13:36:15;98860.66;;;28.81;44.64
44697;BME280;57264;47.480;19.354;2023-07-13T13:38:42;98871.47;;;28.81;45.86